createdAt,value
2019-04-30T00:01:43.416Z,29.50
2019-04-30T00:04:19.505Z,29.60
2019-04-30T00:06:51.305Z,29.60
2019-04-30T00:09:25.330Z,29.70
2019-04-30T00:12:01.293Z,29.80
2019-04-30T00:14:37.614Z,29.80
2019-04-30T00:17:06.321Z,29.90
2019-04-30T00:19:38.941Z,29.90
2019-04-30T00:22:10.637Z,30.00
2019-04-30T00:24:46.881Z,30.00
2019-04-30T00:27:16.376Z,30.10
2019-04-30T00:29:48.985Z,30.10
2019-04-30T00:32:25.705Z,30.10
2019-04-30T00:34:57.787Z,30.20
2019-04-30T00:37:29.402Z,30.30
2019-04-30T00:40:02.176Z,30.30
2019-04-30T00:42:35.783Z,30.40
2019-04-30T00:45:11.164Z,30.50
2019-04-30T00:47:44.495Z,30.50
2019-04-30T00:50:16.950Z,30.60
2019-04-30T00:52:48.681Z,30.70
2019-04-30T00:55:22.215Z,30.80
2019-04-30T00:57:55.809Z,30.80
2019-04-30T01:00:30.219Z,31.00
2019-04-30T01:03:05.865Z,31.00
2019-04-30T01:05:39.674Z,31.10
2019-04-30T01:08:12.038Z,31.20
2019-04-30T01:10:46.021Z,31.20
2019-04-30T01:13:19.220Z,31.40
2019-04-30T01:15:52.629Z,31.40
2019-04-30T01:18:28.622Z,31.50
2019-04-30T01:20:58.681Z,31.50
2019-04-30T01:23:33.194Z,31.60
2019-04-30T01:26:06.096Z,31.60
2019-04-30T01:28:38.978Z,31.70
2019-04-30T01:31:11.656Z,31.80
2019-04-30T01:33:43.388Z,31.90
2019-04-30T01:36:15.108Z,31.90
2019-04-30T01:38:51.056Z,32.10
2019-04-30T01:41:27.256Z,32.10
2019-04-30T01:43:54.499Z,32.20
2019-04-30T01:46:25.982Z,32.20
2019-04-30T01:48:58.881Z,32.30
2019-04-30T01:51:31.345Z,32.40
2019-04-30T01:54:04.410Z,32.40
2019-04-30T01:56:38.951Z,32.50
2019-04-30T01:59:14.742Z,32.50
2019-04-30T02:01:48.780Z,32.60
2019-04-30T02:04:22.156Z,32.70
2019-04-30T02:06:54.950Z,32.70
2019-04-30T02:09:28.663Z,32.80
2019-04-30T02:12:01.622Z,32.90
2019-04-30T02:14:36.358Z,33.00
2019-04-30T02:17:09.450Z,33.00
2019-04-30T02:19:54.180Z,33.10
2019-04-30T02:22:18.955Z,33.20
2019-04-30T02:24:52.910Z,33.30
2019-04-30T02:27:25.603Z,33.40
2019-04-30T02:30:02.059Z,33.50
2019-04-30T02:32:31.251Z,33.60
2019-04-30T02:35:04.989Z,33.70
2019-04-30T02:37:39.972Z,33.80
2019-04-30T02:40:13.670Z,33.80
2019-04-30T02:42:46.064Z,33.90
2019-04-30T02:45:20.633Z,34.00
2019-04-30T02:47:52.442Z,34.00
2019-04-30T02:50:24.871Z,34.10
2019-04-30T02:53:02.584Z,34.10
2019-04-30T02:55:34.620Z,34.10
2019-04-30T02:58:09.466Z,34.20
2019-04-30T03:00:41.209Z,34.30
2019-04-30T03:03:16.283Z,34.30
2019-04-30T03:05:49.597Z,34.40
2019-04-30T03:08:21.708Z,34.50
2019-04-30T03:10:53.072Z,34.60
2019-04-30T03:13:26.237Z,34.70
2019-04-30T03:15:59.288Z,34.80
2019-04-30T03:18:32.228Z,34.90
2019-04-30T03:21:05.112Z,34.90
2019-04-30T03:23:39.144Z,35.00
2019-04-30T03:26:12.996Z,35.10
2019-04-30T03:28:44.378Z,35.20
2019-04-30T03:31:16.644Z,35.30
2019-04-30T03:33:51.948Z,35.40
2019-04-30T03:36:21.961Z,35.40
2019-04-30T03:38:53.859Z,35.40
2019-04-30T03:41:33.067Z,35.50
2019-04-30T03:44:17.502Z,35.60
2019-04-30T03:46:39.793Z,35.70
2019-04-30T03:49:10.584Z,35.90
2019-04-30T03:51:41.977Z,35.90
2019-04-30T03:54:14.759Z,36.00
2019-04-30T03:56:50.209Z,36.20
2019-04-30T03:59:20.465Z,36.20
2019-04-30T04:01:54.445Z,36.30
2019-04-30T04:04:27.222Z,36.30
2019-04-30T04:07:01.803Z,36.30
2019-04-30T04:09:34.608Z,36.40
2019-04-30T04:12:11.857Z,36.50
2019-04-30T04:14:41.712Z,36.60
2019-04-30T04:17:15.502Z,36.70
2019-04-30T04:19:49.434Z,36.70
2019-04-30T04:22:24.783Z,36.80
2019-04-30T04:25:00.100Z,36.90
2019-04-30T04:27:32.760Z,37.00
2019-04-30T04:30:06.092Z,37.10
2019-04-30T04:32:39.940Z,37.10
2019-04-30T04:35:12.631Z,37.10
2019-04-30T04:37:44.740Z,37.10
2019-04-30T04:40:20.943Z,37.10
2019-04-30T04:42:55.405Z,37.10
2019-04-30T04:45:30.350Z,37.10
2019-04-30T04:48:02.049Z,37.10
2019-04-30T04:50:34.756Z,37.10
2019-04-30T04:53:08.888Z,37.00
2019-04-30T04:55:40.104Z,36.90
2019-04-30T04:58:12.943Z,36.90
2019-04-30T05:00:45.588Z,36.80
2019-04-30T05:03:20.142Z,36.90
2019-04-30T05:05:53.296Z,36.90
2019-04-30T05:08:25.570Z,37.00
2019-04-30T05:10:57.061Z,37.20
2019-04-30T05:13:29.636Z,37.30
2019-04-30T05:16:01.474Z,37.40
2019-04-30T05:18:33.667Z,37.60
2019-04-30T05:21:05.127Z,37.60
2019-04-30T05:23:36.612Z,37.70
2019-04-30T05:26:11.137Z,37.70
2019-04-30T05:28:42.093Z,37.80
2019-04-30T05:31:14.068Z,37.80
2019-04-30T05:33:45.959Z,37.90
2019-04-30T05:36:19.053Z,38.00
2019-04-30T05:38:51.775Z,38.20
2019-04-30T05:41:25.105Z,38.10
2019-04-30T05:43:58.988Z,38.10
2019-04-30T05:46:30.379Z,38.00
2019-04-30T05:49:03.071Z,38.00
2019-04-30T05:51:36.215Z,37.90
2019-04-30T05:54:11.308Z,37.70
2019-04-30T05:56:44.022Z,37.60
2019-04-30T05:59:20.405Z,37.50
2019-04-30T06:01:51.751Z,37.40
2019-04-30T06:04:23.473Z,37.40
2019-04-30T06:06:56.398Z,37.40
2019-04-30T06:09:33.828Z,37.40
2019-04-30T06:12:05.949Z,37.50
2019-04-30T06:14:48.667Z,37.60
2019-04-30T06:17:15.033Z,37.80
2019-04-30T06:19:48.788Z,37.90
2019-04-30T06:22:21.821Z,38.10
2019-04-30T06:24:53.299Z,38.10
2019-04-30T06:27:25.084Z,38.10
2019-04-30T06:29:58.509Z,38.10
2019-04-30T06:32:30.134Z,38.00
2019-04-30T06:35:05.145Z,37.90
2019-04-30T06:37:38.712Z,37.80
2019-04-30T06:40:11.737Z,37.80
2019-04-30T06:42:43.798Z,37.90
2019-04-30T06:45:16.591Z,37.80
2019-04-30T06:47:49.583Z,37.80
2019-04-30T06:50:22.366Z,37.80
2019-04-30T06:52:58.428Z,37.80
2019-04-30T06:55:30.646Z,38.00
2019-04-30T06:58:12.186Z,38.10
2019-04-30T07:00:40.169Z,38.10
2019-04-30T07:03:11.677Z,38.10
2019-04-30T07:05:44.445Z,38.20
2019-04-30T07:08:19.015Z,38.30
2019-04-30T07:10:55.683Z,38.30
2019-04-30T07:13:27.332Z,38.30
2019-04-30T07:15:59.115Z,38.30
2019-04-30T07:18:30.866Z,38.20
2019-04-30T07:21:02.326Z,38.20
2019-04-30T07:23:35.665Z,38.20
2019-04-30T07:26:08.824Z,38.20
2019-04-30T07:28:46.946Z,38.30
2019-04-30T07:31:14.900Z,38.30
2019-04-30T07:33:50.642Z,38.30
2019-04-30T07:36:20.700Z,38.30
2019-04-30T07:38:56.335Z,38.30
2019-04-30T07:41:30.887Z,38.20
2019-04-30T07:44:02.757Z,38.20
2019-04-30T07:46:41.221Z,38.10
2019-04-30T07:49:12.770Z,38.10
2019-04-30T07:51:51.598Z,38.00
2019-04-30T07:54:21.875Z,37.90
2019-04-30T07:56:53.338Z,37.90
2019-04-30T07:59:29.818Z,37.90
2019-04-30T08:02:10.198Z,37.80
2019-04-30T08:04:36.148Z,37.80
2019-04-30T08:07:10.814Z,37.80
2019-04-30T08:09:45.431Z,37.70
2019-04-30T08:12:25.530Z,37.70
2019-04-30T08:14:51.903Z,37.70
2019-04-30T08:17:23.564Z,37.70
2019-04-30T08:19:55.981Z,37.60
2019-04-30T08:22:29.514Z,37.60
2019-04-30T08:25:00.428Z,37.40
2019-04-30T08:27:33.436Z,37.20
2019-04-30T08:30:17.854Z,37.10
2019-04-30T08:32:38.707Z,37.00
2019-04-30T08:35:10.568Z,36.90
2019-04-30T08:37:43.398Z,36.80
2019-04-30T08:40:16.189Z,36.70
2019-04-30T08:42:49.575Z,36.70
2019-04-30T08:45:22.701Z,36.70
2019-04-30T08:47:55.639Z,36.70
2019-04-30T08:50:29.280Z,36.70
2019-04-30T08:53:01.577Z,36.80
2019-04-30T08:55:34.955Z,36.90
2019-04-30T08:58:10.009Z,37.00
2019-04-30T09:00:40.872Z,37.10
2019-04-30T09:03:12.650Z,37.00
2019-04-30T09:05:46.910Z,37.00
2019-04-30T09:08:21.686Z,36.90
2019-04-30T09:10:53.054Z,36.80
2019-04-30T09:13:25.647Z,36.60
2019-04-30T09:15:59.369Z,36.40
2019-04-30T09:18:32.271Z,36.20
2019-04-30T09:21:08.776Z,36.10
2019-04-30T09:23:49.494Z,36.00
2019-04-30T09:26:13.410Z,35.90
2019-04-30T09:28:44.919Z,35.80
2019-04-30T09:31:16.522Z,35.80
2019-04-30T09:33:49.243Z,35.80
2019-04-30T09:36:20.984Z,35.90
2019-04-30T09:38:54.196Z,35.90
2019-04-30T09:41:26.024Z,35.90
2019-04-30T09:43:59.631Z,36.00
2019-04-30T09:46:31.728Z,36.00
2019-04-30T09:49:04.155Z,36.00
2019-04-30T09:51:35.921Z,36.10
2019-04-30T09:54:11.731Z,36.10
2019-04-30T09:56:43.231Z,36.10
2019-04-30T09:59:16.263Z,36.10
2019-04-30T10:01:50.870Z,36.00
2019-04-30T10:04:23.277Z,36.00
2019-04-30T10:06:55.282Z,35.90
2019-04-30T10:09:29.375Z,35.80
2019-04-30T10:12:02.818Z,35.70
2019-04-30T10:14:35.722Z,35.60
2019-04-30T10:17:10.060Z,35.60
2019-04-30T10:19:41.437Z,35.50
2019-04-30T10:22:14.312Z,35.40
2019-04-30T10:24:46.971Z,35.40
2019-04-30T10:27:19.147Z,35.40
2019-04-30T10:29:51.568Z,35.40
2019-04-30T10:32:23.381Z,35.40
2019-04-30T10:34:56.305Z,35.40
2019-04-30T10:37:29.543Z,35.40
2019-04-30T10:40:04.781Z,35.40
2019-04-30T10:42:39.148Z,35.40
2019-04-30T10:45:12.523Z,35.30
2019-04-30T10:47:45.496Z,35.30
2019-04-30T10:50:17.783Z,35.30
2019-04-30T10:52:50.206Z,35.30
2019-04-30T10:55:21.820Z,35.20
2019-04-30T10:57:53.239Z,35.20
2019-04-30T11:00:28.700Z,35.10
2019-04-30T11:03:01.310Z,35.10
2019-04-30T11:05:33.823Z,35.10
2019-04-30T11:08:09.135Z,35.10
2019-04-30T11:10:45.160Z,35.00
2019-04-30T11:15:54.814Z,34.90
2019-04-30T11:18:28.905Z,34.80
2019-04-30T11:21:03.173Z,34.60
2019-04-30T11:23:37.023Z,34.50
2019-04-30T11:26:10.688Z,34.20
2019-04-30T11:28:45.065Z,34.10
2019-04-30T11:31:27.064Z,33.90
2019-04-30T11:34:17.552Z,33.80
2019-04-30T11:36:51.552Z,33.60
2019-04-30T11:39:24.322Z,33.50
2019-04-30T11:41:58.733Z,33.40
2019-04-30T11:44:34.096Z,33.20
2019-04-30T11:47:24.832Z,33.10
2019-04-30T11:49:57.805Z,32.90
2019-04-30T11:52:33.643Z,32.60
2019-04-30T11:55:09.493Z,32.30
2019-04-30T11:57:42.125Z,32.10
2019-04-30T12:00:18.771Z,31.90
2019-04-30T12:02:53.094Z,31.70
2019-04-30T12:05:26.423Z,31.50
2019-04-30T12:08:19.545Z,31.30
2019-04-30T12:10:56.333Z,31.10
2019-04-30T12:13:31.134Z,30.90
2019-04-30T12:16:04.583Z,30.80
2019-04-30T12:18:38.323Z,30.70
2019-04-30T12:21:11.092Z,30.60
2019-04-30T12:23:45.383Z,30.60
2019-04-30T12:26:19.448Z,30.60
2019-04-30T12:28:54.952Z,30.50
2019-04-30T12:31:29.753Z,30.60
2019-04-30T12:34:03.732Z,30.60
2019-04-30T12:36:36.504Z,30.60
2019-04-30T12:39:10.022Z,30.60
2019-04-30T12:41:42.963Z,30.70
2019-04-30T12:44:20.232Z,30.60
2019-04-30T12:46:53.273Z,30.60
2019-04-30T12:49:28.710Z,30.60
2019-04-30T12:52:03.253Z,30.60
2019-04-30T12:54:36.914Z,30.60
2019-04-30T12:57:11.763Z,30.50
2019-04-30T12:59:45.643Z,30.50
2019-04-30T13:02:21.838Z,30.50
2019-04-30T13:04:55.593Z,30.40
2019-04-30T13:07:30.393Z,30.40
2019-04-30T13:10:02.829Z,30.30
2019-04-30T13:12:36.496Z,30.30
2019-04-30T13:15:11.673Z,30.20
2019-04-30T13:17:49.975Z,30.20
2019-04-30T13:20:24.150Z,30.20
2019-04-30T13:22:55.934Z,30.20
2019-04-30T13:25:35.180Z,30.30
2019-04-30T13:28:03.493Z,30.30
2019-04-30T13:30:36.865Z,30.40
2019-04-30T13:33:12.215Z,30.40
2019-04-30T13:35:46.006Z,30.40
2019-04-30T13:38:21.661Z,30.40
2019-04-30T13:40:58.828Z,30.40
2019-04-30T13:43:40.194Z,30.40
2019-04-30T13:46:12.700Z,30.30
2019-04-30T13:48:48.402Z,30.30
2019-04-30T13:51:22.091Z,30.30
2019-04-30T13:53:55.769Z,30.20
2019-04-30T13:56:29.214Z,30.10
2019-04-30T13:59:01.815Z,30.10
2019-04-30T14:01:34.586Z,30.10
2019-04-30T14:04:10.761Z,30.00
2019-04-30T14:06:53.258Z,30.00
2019-04-30T14:09:26.947Z,30.00
2019-04-30T14:11:59.710Z,30.00
2019-04-30T14:14:36.027Z,30.00
2019-04-30T14:17:09.421Z,30.00
2019-04-30T14:19:42.293Z,30.00
2019-04-30T14:22:15.146Z,30.00
2019-04-30T14:24:50.717Z,30.00
2019-04-30T14:27:23.458Z,30.00
2019-04-30T14:29:56.229Z,30.00
2019-04-30T14:32:29.836Z,30.00
2019-04-30T14:35:04.037Z,30.00
2019-04-30T14:37:38.955Z,30.10
2019-04-30T14:40:13.142Z,30.10
2019-04-30T14:42:48.730Z,30.10
2019-04-30T14:45:25.103Z,30.10
2019-04-30T14:48:07.858Z,30.10
2019-04-30T14:50:41.042Z,30.00
2019-04-30T14:53:15.831Z,30.00
2019-04-30T14:56:11.638Z,30.00
2019-04-30T14:59:00.715Z,30.00
2019-04-30T15:01:43.056Z,30.00
2019-04-30T15:04:20.356Z,30.00
2019-04-30T15:06:52.132Z,30.00
2019-04-30T15:09:26.592Z,29.90
2019-04-30T15:12:00.588Z,29.90
2019-04-30T15:14:34.169Z,29.90
2019-04-30T15:17:08.022Z,29.90
2019-04-30T15:19:41.250Z,29.80
2019-04-30T15:22:15.427Z,29.80
2019-04-30T15:24:49.216Z,29.80
2019-04-30T15:27:23.548Z,29.80
2019-04-30T15:29:57.405Z,29.80
2019-04-30T15:32:30.489Z,29.70
2019-04-30T15:35:04.358Z,29.70
2019-04-30T15:37:38.551Z,29.70
2019-04-30T15:40:11.208Z,29.70
2019-04-30T15:42:44.921Z,29.70
2019-04-30T15:45:20.409Z,29.70
2019-04-30T15:47:54.315Z,29.70
2019-04-30T15:50:29.482Z,29.70
2019-04-30T15:53:01.612Z,29.60
2019-04-30T15:55:35.543Z,29.60
2019-04-30T15:58:10.045Z,29.50
2019-04-30T16:00:43.937Z,29.50
2019-04-30T16:03:20.090Z,29.50
2019-04-30T16:05:54.522Z,29.40
2019-04-30T16:08:30.334Z,29.30
2019-04-30T16:11:10.613Z,29.30
2019-04-30T16:13:52.510Z,29.20
2019-04-30T16:16:27.247Z,29.20
2019-04-30T16:19:01.102Z,29.20
2019-04-30T16:21:37.055Z,29.10
2019-04-30T16:24:10.056Z,29.10
2019-04-30T16:26:50.004Z,29.00
2019-04-30T16:29:19.704Z,29.10
2019-04-30T16:31:52.578Z,29.10
2019-04-30T16:34:26.345Z,29.10
2019-04-30T16:36:59.163Z,29.00
2019-04-30T16:39:32.888Z,29.00
2019-04-30T16:42:06.755Z,29.00
2019-04-30T16:44:39.433Z,29.00
2019-04-30T16:47:16.779Z,28.90
2019-04-30T16:49:49.293Z,28.90
2019-04-30T16:52:24.097Z,28.90
2019-04-30T16:54:58.660Z,28.90
2019-04-30T16:57:32.655Z,28.80
2019-04-30T17:00:06.606Z,28.80
2019-04-30T17:02:40.195Z,28.80
2019-04-30T17:05:19.789Z,28.80
2019-04-30T17:08:01.993Z,28.80
2019-04-30T17:10:54.296Z,28.80
2019-04-30T17:13:28.932Z,28.80
2019-04-30T17:16:11.529Z,28.80
2019-04-30T17:18:49.242Z,28.80
2019-04-30T17:21:21.527Z,28.90
2019-04-30T17:23:54.638Z,28.80
2019-04-30T17:26:30.037Z,28.90
2019-04-30T17:29:03.865Z,28.90
2019-04-30T17:31:36.985Z,28.90
2019-04-30T17:34:09.876Z,28.90
2019-04-30T17:36:43.972Z,28.90
2019-04-30T17:39:17.750Z,28.90
2019-04-30T17:41:51.909Z,28.90
2019-04-30T17:44:24.625Z,28.90
2019-04-30T17:47:00.080Z,28.90
2019-04-30T17:49:33.719Z,28.90
2019-04-30T17:52:06.373Z,28.90
2019-04-30T17:54:44.517Z,28.80
2019-04-30T18:18:51.230Z,28.50
2019-04-30T18:21:24.059Z,28.50
2019-04-30T18:24:00.409Z,28.60
2019-04-30T18:26:37.537Z,28.60
2019-04-30T18:29:08.896Z,28.70
2019-04-30T18:31:41.507Z,28.80
2019-04-30T18:34:13.277Z,29.00
2019-04-30T18:36:45.618Z,29.10
2019-04-30T18:39:18.819Z,29.20
2019-04-30T18:41:52.329Z,29.30
2019-04-30T18:44:24.029Z,29.50
2019-04-30T18:46:56.728Z,29.50
2019-04-30T18:49:31.157Z,29.60
2019-04-30T18:52:02.878Z,29.60
2019-04-30T18:54:39.539Z,29.70
2019-04-30T18:57:13.418Z,29.70
2019-04-30T18:59:46.004Z,29.80
2019-04-30T19:02:18.586Z,29.80
2019-04-30T19:04:51.248Z,29.70
2019-04-30T19:07:25.657Z,29.70
2019-04-30T19:09:59.496Z,29.70
2019-04-30T19:12:33.768Z,29.70
2019-04-30T19:15:07.858Z,29.70
2019-04-30T19:17:40.756Z,29.70
2019-04-30T19:20:18.660Z,29.70
2019-04-30T19:22:50.828Z,29.60
2019-04-30T19:25:25.259Z,29.60
2019-04-30T19:28:09.072Z,29.60
2019-04-30T19:30:32.543Z,29.60
2019-04-30T19:33:04.587Z,29.60
2019-04-30T19:35:36.429Z,29.50
2019-04-30T19:38:09.243Z,29.50
2019-04-30T19:40:45.228Z,29.50
2019-04-30T19:43:19.667Z,29.50
2019-04-30T19:45:52.075Z,29.40
2019-04-30T19:48:25.448Z,29.40
2019-04-30T19:50:58.666Z,29.40
2019-04-30T19:53:30.439Z,29.30
2019-04-30T19:56:03.557Z,29.30
2019-04-30T19:58:52.292Z,29.20
2019-04-30T20:01:10.327Z,29.20
2019-04-30T20:03:42.850Z,29.20
2019-04-30T20:06:15.849Z,29.20
2019-04-30T20:08:50.248Z,29.20
2019-04-30T20:11:24.756Z,29.10
2019-04-30T20:13:57.387Z,29.20
2019-04-30T20:16:30.439Z,29.20
2019-04-30T20:19:03.627Z,29.20
2019-04-30T20:21:48.108Z,29.30
2019-04-30T20:24:12.986Z,29.20
2019-04-30T20:26:50.223Z,29.20
2019-04-30T20:50:55.995Z,28.70
2019-04-30T20:53:29.707Z,28.70
2019-04-30T20:56:05.550Z,28.60
2019-04-30T20:58:42.008Z,28.60
2019-04-30T21:01:14.459Z,28.50
2019-04-30T21:03:48.353Z,28.50
2019-04-30T21:06:21.713Z,28.50
2019-04-30T21:08:55.084Z,28.40
2019-04-30T21:11:27.736Z,28.40
2019-04-30T21:14:02.264Z,28.30
2019-04-30T21:16:36.155Z,28.30
2019-04-30T21:19:10.028Z,28.30
2019-04-30T21:21:43.776Z,28.30
2019-04-30T21:24:16.925Z,28.30
2019-04-30T21:26:49.763Z,28.30
2019-04-30T21:29:23.279Z,28.30
2019-04-30T21:32:13.828Z,28.30
2019-04-30T21:34:50.043Z,28.20
2019-04-30T21:37:24.327Z,28.20
2019-04-30T21:39:58.600Z,28.10
2019-04-30T21:42:32.472Z,28.10
2019-04-30T21:45:06.731Z,28.10
2019-04-30T21:47:42.272Z,28.00
2019-04-30T21:50:15.030Z,28.00
2019-04-30T21:52:49.580Z,28.00
2019-04-30T21:55:23.721Z,28.00
2019-04-30T21:57:59.238Z,28.00
2019-04-30T22:00:52.790Z,28.00
2019-04-30T22:03:26.283Z,28.00
2019-04-30T22:06:00.127Z,28.00
2019-04-30T22:08:32.511Z,28.00
2019-04-30T22:11:06.453Z,28.00
2019-04-30T22:13:43.253Z,28.00
2019-04-30T22:16:16.190Z,28.00
2019-04-30T22:18:50.499Z,27.90
2019-04-30T22:21:24.392Z,28.00
2019-04-30T22:24:00.248Z,27.90
2019-04-30T22:26:34.462Z,27.90
2019-04-30T22:29:09.240Z,27.80
2019-04-30T22:31:43.034Z,27.90
2019-04-30T22:34:16.687Z,27.90
2019-04-30T22:36:49.799Z,27.80
2019-04-30T22:39:29.664Z,27.80
2019-04-30T22:42:05.808Z,27.80
2019-04-30T22:44:40.020Z,27.80
2019-04-30T22:47:12.607Z,27.80
2019-04-30T22:49:45.863Z,27.70
2019-04-30T22:52:21.956Z,27.80
2019-04-30T22:54:58.051Z,27.70
2019-04-30T22:57:32.136Z,27.70
2019-04-30T23:00:06.182Z,27.70
2019-04-30T23:02:42.224Z,27.70
2019-04-30T23:05:17.128Z,27.80
2019-04-30T23:07:50.780Z,27.70
2019-04-30T23:10:23.729Z,27.70
2019-04-30T23:12:57.571Z,27.80
2019-04-30T23:15:31.648Z,27.70
2019-04-30T23:18:06.872Z,27.70
2019-04-30T23:20:39.545Z,27.70
2019-04-30T23:23:13.674Z,27.60
2019-04-30T23:25:46.625Z,27.70
2019-04-30T23:28:20.274Z,27.70
2019-04-30T23:30:53.182Z,27.70
2019-04-30T23:33:27.159Z,27.80
2019-04-30T23:36:00.351Z,27.80
2019-04-30T23:38:34.142Z,27.80
2019-04-30T23:41:07.595Z,27.80
2019-04-30T23:43:41.493Z,27.80
2019-04-30T23:46:14.433Z,27.90
2019-04-30T23:48:48.112Z,27.90
2019-04-30T23:51:21.899Z,28.00
2019-04-30T23:53:55.956Z,28.00
2019-04-30T23:56:28.702Z,28.10
2019-04-30T23:59:01.455Z,28.10
